Cumby, Texas
Current Conditions -  °F | °C
As of 3:35 AM on Thursday 27 Nov 2014 (Local Time) from KSLR Reporting Station
Clear Clear  
Wind Chill:   Ceiling: Unl
Heat Index:   Visibility: 10mi
Dew Point: -2°   Wind: 21mph
Humidity: 56%   Direction: 20°NNE
Pressure: 30.47"   Gusts: NA
Location:  33.14°N, 95.84°W
Report Text: KSLR 270935Z AUTO 02018KT 10SM CLR 06/M02 A3047 RMK AO2 T00631019
Loading
Personal Weather Stations






























Interactive Weather Map New forecast layout! Learn more

10-Day Weather Forecast

Advertisements
Track Severe Weather on mobile